Carnival Destiny — C6FN4 — position and weather

sailwx.info

Track history (hours):
 
Tides and Currents Weather Stations Pressure Air Temp Water Temp Dewpoint Dewpoint Depression Visibility Wind Speed Wind Dir Waves Ship Positions

Carnival Destiny

Operator: Carnival Cruise Lines

Last reported at 2017-May-28 03:38 UTC. Time now 2017-May-28 06:44 UTC.
Position N 26°31' W 076°40'.

Type: Passenger vessel. MMSI: 308017000.

Date/timePositionNaut miles runAvg speedWind from/ knotsBaromVisibWave heightAir tempDewpointWater temp
2017-May-28 03:38N 26°31' W 076°40'0 1.0
2017-May-28 03:15N 26°30' W 076°40'623.7
2017-May-28 03:01N 26°25' W 076°41'714.0
2017-May-28 02:30N 26°18' W 076°42'817.1
2017-May-28 02:00N 26°10' W 076°46'816.7
2017-May-28 01:30N 26°02' W 076°49'816.3
2017-May-28 01:01N 25°55' W 076°53'42 2.8
2017-May-27 10:00N 25°24' W 077°24'2417.9 280 / 61018.0 5.4 27.025.626.0
2017-May-27 08:40N 25°46' W 077°33'28012.4
2017-May-26 10:00N 29°42' W 080°24'7218.0 290 / 201016.010.8 23.019.925.0
2017-May-26 06:00N 30°54' W 080°18'242 6.0 310 / 201011.010.8 24.021.022.0
2017-May-24 13:33N 27°49' W 077°19'320.5
2017-May-24 13:26N 27°48' W 077°16'2120.6
2017-May-24 12:24N 27°35' W 076°57'6125.4
2017-May-24 10:00N 26°54' W 076°06'23319.4 200 / 271014.010.8 26.023.125.0
2017-May-23 22:00N 24°18' W 072°54'25621.3 120 / 101015.010.8 25.020.525.0
2017-May-23 10:00N 21°24' W 069°30'25719.4 100 / 181017.010.8 26.023.125.0
2017-May-22 20:48N 18°31' W 066°08'311.8
2017-May-22 20:30N 18°28' W 066°07'1 1.5
2017-May-22 20:00N 18°28' W 066°07'0 0.0
2017-May-22 19:27N 18°28' W 066°07'0 0.0
2017-May-22 18:57N 18°28' W 066°07'0 0.0
2017-May-22 18:15N 18°28' W 066°07'0 0.0
2017-May-22 18:00N 18°28' W 066°07'0 0.0
2017-May-22 17:24N 18°28' W 066°07'0 0.0
2017-May-22 16:59N 18°28' W 066°07'0 0.0
2017-May-22 16:30N 18°28' W 066°07'0 0.0
2017-May-22 15:59N 18°28' W 066°07'0 0.0
2017-May-22 15:29N 18°28' W 066°07'0 0.0
2017-May-22 14:57N 18°28' W 066°07'0 0.0
2017-May-22 14:00N 18°28' W 066°07'0 0.0
2017-May-22 13:30N 18°28' W 066°07'0 0.0
2017-May-22 12:57N 18°28' W 066°07'0 0.0
2017-May-22 12:30N 18°28' W 066°07'0 0.0
2017-May-22 12:00N 18°28' W 066°07'0 0.6
2017-May-22 11:30N 18°27' W 066°07'3 6.8
2017-May-22 11:00N 18°31' W 066°08'1312.7
2017-May-22 10:00N 18°30' W 065°54'5612.6 040 / 151014.010.8 25.020.525.0
2017-May-22 05:32N 18°10' W 064°59'117.0
2017-May-22 05:27N 18°09' W 064°57'817.1
2017-May-22 05:01N 18°07' W 064°50'4518.1
2017-May-22 02:30N 18°02' W 064°02'1019.3
2017-May-22 01:59N 18°01' W 063°52'919.0
2017-May-22 01:30N 17°58' W 063°43'1019.5
2017-May-22 01:00N 17°54' W 063°33'1019.1
2017-May-22 00:29N 17°49' W 063°24'1019.0
2017-May-21 23:59N 17°46' W 063°15'918.6
2017-May-21 23:29N 17°41' W 063°07'919.0
2017-May-21 23:00N 17°32' W 063°06'1218.0
2017-May-21 22:20N 17°21' W 063°00'1318.3
2017-May-21 21:37N 17°16' W 062°47'217.1
2017-May-21 21:30N 17°16' W 062°46'3 0.2
2017-May-21 11:03N 17°17' W 062°43'0 5.6
2017-May-21 11:00N 17°17' W 062°43'1110.8
2017-May-21 10:00N 17°06' W 062°42'1313.6 100 / 211014.0 5.4 27.022.625.0
2017-May-21 09:02N 16°53' W 062°42'513.9
2017-May-21 08:40N 16°48' W 062°41'414.4
2017-May-21 08:22N 16°44' W 062°38'514.5
2017-May-21 08:00N 16°40' W 062°36'714.2
2017-May-21 07:30N 16°34' W 062°32'815.0
2017-May-21 07:00N 16°27' W 062°28'715.3
2017-May-21 06:30N 16°20' W 062°24'714.7
2017-May-21 06:01N 16°14' W 062°21'815.9
2017-May-21 05:30N 16°07' W 062°16'816.2
2017-May-21 04:59N 15°60' W 062°12'5116.7
2017-May-21 01:56N 15°15' W 061°46'817.4
2017-May-21 01:28N 15°08' W 061°42'817.5
2017-May-21 00:59N 15°01' W 061°38'917.1
2017-May-21 00:27N 14°53' W 061°33'2516.5
2017-May-20 22:55N 14°37' W 061°13'2 0.2
2017-May-20 10:33N 14°36' W 061°10'114.7
2017-May-20 10:30N 14°36' W 061°11'3013.9
2017-May-20 08:22N 14°57' W 061°33'615.3
2017-May-20 07:58N 15°03' W 061°35'715.1
2017-May-20 07:30N 15°09' W 061°38'815.4
2017-May-20 07:00N 15°16' W 061°41'916.1
2017-May-20 06:26N 15°25' W 061°45'716.1
2017-May-20 06:00N 15°31' W 061°48'91548.7
2017-May-20 06:00N 15°24' W 061°42'2326.5 080 / 301010.010.8 27.024.124.0
2017-May-20 05:06N 15°45' W 061°54'616.3
2017-May-20 04:45N 15°50' W 061°56'416.2
2017-May-20 04:30N 15°54' W 061°58'816.1
2017-May-20 04:00N 16°01' W 062°00'816.8
2017-May-20 03:30N 16°09' W 062°03'917.1
2017-May-20 03:00N 16°18' W 062°04'917.1
2017-May-20 02:30N 16°26' W 062°01'917.6
2017-May-20 02:00N 16°33' W 061°55'816.1
2017-May-20 01:30N 16°41' W 061°55'917.3
2017-May-20 01:00N 16°48' W 061°60'816.9
2017-May-20 00:30N 16°55' W 062°04'816.9
2017-May-20 00:00N 17°03' W 062°08'713.7
2017-May-19 23:30N 17°09' W 062°06'816.8
2017-May-19 23:00N 17°09' W 061°57'611.5
2017-May-19 22:30N 17°07' W 061°51'0 0.8
2017-May-19 22:00N 17°07' W 061°51'0 0.0
2017-May-19 21:30N 17°07' W 061°51'0 0.0
2017-May-19 21:00N 17°07' W 061°51'0 0.0
2017-May-19 20:30N 17°07' W 061°51'0 0.0
2017-May-19 20:00N 17°07' W 061°51'0 0.0
2017-May-19 19:30N 17°07' W 061°51'0 0.0
2017-May-19 19:00N 17°07' W 061°51'0 0.0
2017-May-19 18:30N 17°07' W 061°51'0 0.0
2017-May-19 18:00N 17°07' W 061°51'0 0.0
2017-May-19 17:30N 17°07' W 061°51'0 0.0
2017-May-19 17:00N 17°07' W 061°51'0 0.0
2017-May-19 16:30N 17°07' W 061°51'0 0.0
2017-May-19 16:00N 17°07' W 061°51'0 0.0
2017-May-19 15:30N 17°07' W 061°51'0 0.0
2017-May-19 15:00N 17°07' W 061°51'0 0.0
2017-May-19 14:00N 17°07' W 061°51'0 0.0
2017-May-19 13:30N 17°07' W 061°51'0 0.0
2017-May-19 13:00N 17°07' W 061°51'0 0.1
2017-May-19 12:30N 17°07' W 061°51'0 0.1
2017-May-19 12:00N 17°07' W 061°51'0 0.2
2017-May-19 11:30N 17°07' W 061°51'3 5.2
2017-May-19 11:00N 17°08' W 061°53'5 9.5
2017-May-19 10:30N 17°10' W 061°58'815.1
2017-May-19 10:00N 17°14' W 062°05'5309.5
2017-May-19 10:00N 17°12' W 062°00'1327.3 080 / 201015.0 5.4 26.021.525.0
2017-May-19 09:30N 17°19' W 062°12'816.7
2017-May-19 09:00N 17°24' W 062°19'816.4
2017-May-19 08:30N 17°28' W 062°26'917.5
2017-May-19 08:00N 17°33' W 062°34'918.5
2017-May-19 07:30N 17°39' W 062°41'3 5.4
2017-May-19 07:00N 17°36' W 062°42'1477.1 050 / 301015.010.8 26.021.524.0
2017-May-19 06:49N 17°45' W 062°53'617.8
2017-May-19 06:29N 17°48' W 062°58'1018.0
2017-May-19 05:55N 17°52' W 063°08'818.2
2017-May-19 05:27N 17°56' W 063°16'918.0
2017-May-19 04:57N 17°59' W 063°25'917.9
2017-May-19 04:28N 17°60' W 063°34'817.8
2017-May-19 04:00N 18°01' W 063°43'5717.0
2017-May-19 00:39N 18°06' W 064°42'215.6
2017-May-19 00:30N 18°06' W 064°44'815.5
2017-May-18 23:59N 18°09' W 064°53'69 5.0
2017-May-18 10:00N 19°00' W 065°42'   090 / 321018.0 5.4 26.021.525.0
Track history (hours):
 
Tides and Currents Weather Stations Pressure Air Temp Water Temp Dewpoint Dewpoint Depression Visibility Wind Speed Wind Dir Waves Ship Positions

Carnival Destiny

Operator: Carnival Cruise Lines

Last reported at 2017-May-28 03:38 UTC. Time now 2017-May-28 06:44 UTC.
Position N 26°31' W 076°40'.

Type: Passenger vessel. MMSI: 308017000.

Date/timePositionNaut miles runAvg speedWind from/ knotsBaromVisibWave heightAir tempDewpointWater temp
2017-May-28 03:38N 26°31' W 076°40'0 1.0
2017-May-28 03:15N 26°30' W 076°40'623.7
2017-May-28 03:01N 26°25' W 076°41'714.0
2017-May-28 02:30N 26°18' W 076°42'817.1
2017-May-28 02:00N 26°10' W 076°46'816.7
2017-May-28 01:30N 26°02' W 076°49'816.3
2017-May-28 01:01N 25°55' W 076°53'42 2.8
2017-May-27 10:00N 25°24' W 077°24'2417.9 280 / 61018.0 5.4 27.025.626.0
2017-May-27 08:40N 25°46' W 077°33'28012.4
2017-May-26 10:00N 29°42' W 080°24'7218.0 290 / 201016.010.8 23.019.925.0
2017-May-26 06:00N 30°54' W 080°18'242 6.0 310 / 201011.010.8 24.021.022.0
2017-May-24 13:33N 27°49' W 077°19'320.5
2017-May-24 13:26N 27°48' W 077°16'2120.6
2017-May-24 12:24N 27°35' W 076°57'6125.4
2017-May-24 10:00N 26°54' W 076°06'23319.4 200 / 271014.010.8 26.023.125.0
2017-May-23 22:00N 24°18' W 072°54'25621.3 120 / 101015.010.8 25.020.525.0
2017-May-23 10:00N 21°24' W 069°30'25719.4 100 / 181017.010.8 26.023.125.0
2017-May-22 20:48N 18°31' W 066°08'311.8
2017-May-22 20:30N 18°28' W 066°07'1 1.5
2017-May-22 20:00N 18°28' W 066°07'0 0.0
2017-May-22 19:27N 18°28' W 066°07'0 0.0
2017-May-22 18:57N 18°28' W 066°07'0 0.0
2017-May-22 18:15N 18°28' W 066°07'0 0.0
2017-May-22 18:00N 18°28' W 066°07'0 0.0
2017-May-22 17:24N 18°28' W 066°07'0 0.0
2017-May-22 16:59N 18°28' W 066°07'0 0.0
2017-May-22 16:30N 18°28' W 066°07'0 0.0
2017-May-22 15:59N 18°28' W 066°07'0 0.0
2017-May-22 15:29N 18°28' W 066°07'0 0.0
2017-May-22 14:57N 18°28' W 066°07'0 0.0
2017-May-22 14:00N 18°28' W 066°07'0 0.0
2017-May-22 13:30N 18°28' W 066°07'0 0.0
2017-May-22 12:57N 18°28' W 066°07'0 0.0
2017-May-22 12:30N 18°28' W 066°07'0 0.0
2017-May-22 12:00N 18°28' W 066°07'0 0.6
2017-May-22 11:30N 18°27' W 066°07'3 6.8
2017-May-22 11:00N 18°31' W 066°08'1312.7
2017-May-22 10:00N 18°30' W 065°54'5612.6 040 / 151014.010.8 25.020.525.0
2017-May-22 05:32N 18°10' W 064°59'117.0
2017-May-22 05:27N 18°09' W 064°57'817.1
2017-May-22 05:01N 18°07' W 064°50'4518.1
2017-May-22 02:30N 18°02' W 064°02'1019.3
2017-May-22 01:59N 18°01' W 063°52'919.0
2017-May-22 01:30N 17°58' W 063°43'1019.5
2017-May-22 01:00N 17°54' W 063°33'1019.1
2017-May-22 00:29N 17°49' W 063°24'1019.0
2017-May-21 23:59N 17°46' W 063°15'918.6
2017-May-21 23:29N 17°41' W 063°07'919.0
2017-May-21 23:00N 17°32' W 063°06'1218.0
2017-May-21 22:20N 17°21' W 063°00'1318.3
2017-May-21 21:37N 17°16' W 062°47'217.1
2017-May-21 21:30N 17°16' W 062°46'3 0.2
2017-May-21 11:03N 17°17' W 062°43'0 5.6
2017-May-21 11:00N 17°17' W 062°43'1110.8
2017-May-21 10:00N 17°06' W 062°42'1313.6 100 / 211014.0 5.4 27.022.625.0
2017-May-21 09:02N 16°53' W 062°42'513.9
2017-May-21 08:40N 16°48' W 062°41'414.4
2017-May-21 08:22N 16°44' W 062°38'514.5
2017-May-21 08:00N 16°40' W 062°36'714.2
2017-May-21 07:30N 16°34' W 062°32'815.0
2017-May-21 07:00N 16°27' W 062°28'715.3
2017-May-21 06:30N 16°20' W 062°24'714.7
2017-May-21 06:01N 16°14' W 062°21'815.9
2017-May-21 05:30N 16°07' W 062°16'816.2
2017-May-21 04:59N 15°60' W 062°12'5116.7
2017-May-21 01:56N 15°15' W 061°46'817.4
2017-May-21 01:28N 15°08' W 061°42'817.5
2017-May-21 00:59N 15°01' W 061°38'917.1
2017-May-21 00:27N 14°53' W 061°33'2516.5
2017-May-20 22:55N 14°37' W 061°13'2 0.2
2017-May-20 10:33N 14°36' W 061°10'114.7
2017-May-20 10:30N 14°36' W 061°11'3013.9
2017-May-20 08:22N 14°57' W 061°33'615.3
2017-May-20 07:58N 15°03' W 061°35'715.1
2017-May-20 07:30N 15°09' W 061°38'815.4
2017-May-20 07:00N 15°16' W 061°41'916.1
2017-May-20 06:26N 15°25' W 061°45'716.1
2017-May-20 06:00N 15°31' W 061°48'91548.7
2017-May-20 06:00N 15°24' W 061°42'2326.5 080 / 301010.010.8 27.024.124.0
2017-May-20 05:06N 15°45' W 061°54'616.3
2017-May-20 04:45N 15°50' W 061°56'416.2
2017-May-20 04:30N 15°54' W 061°58'816.1
2017-May-20 04:00N 16°01' W 062°00'816.8
2017-May-20 03:30N 16°09' W 062°03'917.1
2017-May-20 03:00N 16°18' W 062°04'917.1
2017-May-20 02:30N 16°26' W 062°01'917.6
2017-May-20 02:00N 16°33' W 061°55'816.1
2017-May-20 01:30N 16°41' W 061°55'917.3
2017-May-20 01:00N 16°48' W 061°60'816.9
2017-May-20 00:30N 16°55' W 062°04'816.9
2017-May-20 00:00N 17°03' W 062°08'713.7
2017-May-19 23:30N 17°09' W 062°06'816.8
2017-May-19 23:00N 17°09' W 061°57'611.5
2017-May-19 22:30N 17°07' W 061°51'0 0.8
2017-May-19 22:00N 17°07' W 061°51'0 0.0
2017-May-19 21:30N 17°07' W 061°51'0 0.0
2017-May-19 21:00N 17°07' W 061°51'0 0.0
2017-May-19 20:30N 17°07' W 061°51'0 0.0
2017-May-19 20:00N 17°07' W 061°51'0 0.0
2017-May-19 19:30N 17°07' W 061°51'0 0.0
2017-May-19 19:00N 17°07' W 061°51'0 0.0
2017-May-19 18:30N 17°07' W 061°51'0 0.0
2017-May-19 18:00N 17°07' W 061°51'0 0.0
2017-May-19 17:30N 17°07' W 061°51'0 0.0
2017-May-19 17:00N 17°07' W 061°51'0 0.0
2017-May-19 16:30N 17°07' W 061°51'0 0.0
2017-May-19 16:00N 17°07' W 061°51'0 0.0
2017-May-19 15:30N 17°07' W 061°51'0 0.0
2017-May-19 15:00N 17°07' W 061°51'0 0.0
2017-May-19 14:00N 17°07' W 061°51'0 0.0
2017-May-19 13:30N 17°07' W 061°51'0 0.0
2017-May-19 13:00N 17°07' W 061°51'0 0.1
2017-May-19 12:30N 17°07' W 061°51'0 0.1
2017-May-19 12:00N 17°07' W 061°51'0 0.2
2017-May-19 11:30N 17°07' W 061°51'3 5.2
2017-May-19 11:00N 17°08' W 061°53'5 9.5
2017-May-19 10:30N 17°10' W 061°58'815.1
2017-May-19 10:00N 17°14' W 062°05'5309.5
2017-May-19 10:00N 17°12' W 062°00'1327.3 080 / 201015.0 5.4 26.021.525.0
2017-May-19 09:30N 17°19' W 062°12'816.7
2017-May-19 09:00N 17°24' W 062°19'816.4
2017-May-19 08:30N 17°28' W 062°26'917.5
2017-May-19 08:00N 17°33' W 062°34'918.5
2017-May-19 07:30N 17°39' W 062°41'3 5.4
2017-May-19 07:00N 17°36' W 062°42'1477.1 050 / 301015.010.8 26.021.524.0
2017-May-19 06:49N 17°45' W 062°53'617.8
2017-May-19 06:29N 17°48' W 062°58'1018.0
2017-May-19 05:55N 17°52' W 063°08'818.2
2017-May-19 05:27N 17°56' W 063°16'918.0
2017-May-19 04:57N 17°59' W 063°25'917.9
2017-May-19 04:28N 17°60' W 063°34'817.8
2017-May-19 04:00N 18°01' W 063°43'5717.0
2017-May-19 00:39N 18°06' W 064°42'215.6
2017-May-19 00:30N 18°06' W 064°44'815.5
2017-May-18 23:59N 18°09' W 064°53'69 5.0
2017-May-18 10:00N 19°00' W 065°42'   090 / 321018.0 5.4 26.021.525.0

Dump ship's entire track history